createdAt,value
2022-12-01T00:03:09.550Z,102925.16
2022-12-01T00:08:30.897Z,102922.56
2022-12-01T00:13:51.275Z,102926.38
2022-12-01T00:19:11.770Z,102912.94
2022-12-01T00:24:32.082Z,102915.69
2022-12-01T00:29:52.609Z,102906.56
2022-12-01T00:35:14.378Z,102909.19
2022-12-01T00:40:34.921Z,102903.22
2022-12-01T00:45:59.283Z,102891.25
2022-12-01T00:51:19.755Z,102909.91
2022-12-01T00:56:40.561Z,102910.94
2022-12-01T01:02:02.496Z,102904.16
2022-12-01T01:07:23.402Z,102912.66
2022-12-01T01:12:44.024Z,102906.06
2022-12-01T01:18:06.241Z,102910.09
2022-12-01T01:23:27.108Z,102912.44
2022-12-01T01:28:48.243Z,102928.59
2022-12-01T01:34:08.920Z,102921.78
2022-12-01T01:39:29.372Z,102919.94
2022-12-01T01:44:56.842Z,102920.63
2022-12-01T01:50:20.638Z,102921.38
2022-12-01T01:55:40.958Z,102931.41
2022-12-01T02:01:02.134Z,102922.03
2022-12-01T02:06:23.884Z,102918.44
2022-12-01T02:12:03.323Z,102917.47
2022-12-01T02:17:41.855Z,102910.69
2022-12-01T02:23:05.536Z,102915.75
2022-12-01T02:28:52.664Z,102916.44
2022-12-01T02:34:21.835Z,102923.81
2022-12-01T02:39:55.526Z,102912.66
2022-12-01T02:46:02.877Z,102908.44
2022-12-01T02:51:29.092Z,102921.81
2022-12-01T02:56:53.762Z,102907.28
2022-12-01T03:02:42.164Z,102906.56
2022-12-01T03:08:26.789Z,102909.69
2022-12-01T03:14:27.059Z,102907.94
2022-12-01T03:20:00.853Z,102910.44
2022-12-01T03:25:26.283Z,102902.75
2022-12-01T03:30:50.998Z,102911.50
2022-12-01T03:36:35.212Z,102907.28
2022-12-01T03:42:04.887Z,102901.47
2022-12-01T03:47:32.115Z,102907.38
2022-12-01T03:53:22.139Z,102910.03
2022-12-01T03:58:47.244Z,102908.22
2022-12-01T04:04:11.441Z,102899.72
2022-12-01T04:09:31.978Z,102903.41
2022-12-01T04:14:52.463Z,102909.19
2022-12-01T04:20:14.957Z,102912.56
2022-12-01T04:25:36.449Z,102920.25
2022-12-01T04:30:57.009Z,102924.56
2022-12-01T04:36:17.631Z,102926.44
2022-12-01T04:41:38.077Z,102926.34
2022-12-01T04:46:58.840Z,102938.34
2022-12-01T04:52:19.382Z,102927.38
2022-12-01T04:57:41.394Z,102933.25
2022-12-01T05:03:01.890Z,102934.09
2022-12-01T05:08:22.583Z,102932.44
2022-12-01T05:13:45.407Z,102929.09
2022-12-01T05:19:25.088Z,102943.63
2022-12-01T05:24:45.695Z,102948.66
2022-12-01T05:30:07.020Z,102943.47
2022-12-01T05:35:27.484Z,102950.34
2022-12-01T05:40:55.951Z,102952.84
2022-12-01T05:46:16.727Z,102956.28
2022-12-01T05:51:37.495Z,102947.75
2022-12-01T05:56:58.038Z,102956.16
2022-12-01T06:02:18.454Z,102964.66
2022-12-01T06:07:40.300Z,102965.63
2022-12-01T06:13:01.089Z,102970.78
2022-12-01T06:18:21.939Z,102969.91
2022-12-01T06:23:42.535Z,102965.91
2022-12-01T06:29:02.947Z,102966.72
2022-12-01T06:34:23.678Z,102970.13
2022-12-01T06:39:44.383Z,102979.28
2022-12-01T06:45:05.439Z,102980.09
2022-12-01T06:50:26.314Z,102976.84
2022-12-01T06:55:47.183Z,102985.41
2022-12-01T07:01:09.919Z,102988.78
2022-12-01T07:06:31.931Z,102993.97
2022-12-01T07:11:52.524Z,103000.69
2022-12-01T07:17:12.918Z,103000.63
2022-12-01T07:22:33.808Z,103004.09
2022-12-01T07:27:54.281Z,103006.75
2022-12-01T07:33:15.369Z,103006.75
2022-12-01T07:38:38.324Z,103011.06
2022-12-01T07:43:59.068Z,103010.16
2022-12-01T07:49:19.762Z,103022.06
2022-12-01T07:54:40.655Z,103017.13
2022-12-01T08:00:01.484Z,103023.97
2022-12-01T08:05:32.334Z,103022.31
2022-12-01T08:10:53.658Z,103023.16
2022-12-01T08:16:16.339Z,103033.34
2022-12-01T08:21:37.539Z,103046.25
2022-12-01T08:26:58.360Z,103050.44
2022-12-01T08:32:18.874Z,103058.09
2022-12-01T08:37:39.408Z,103050.53
2022-12-01T08:43:00.008Z,103057.25
2022-12-01T08:48:20.709Z,103063.22
2022-12-01T08:53:45.942Z,103063.22
2022-12-01T08:59:06.851Z,103062.28
2022-12-01T09:04:27.980Z,103069.09
2022-12-01T09:09:48.457Z,103070.69
2022-12-01T09:15:09.903Z,103066.47
2022-12-01T09:20:30.402Z,103067.34
2022-12-01T09:25:52.507Z,103069.16
2022-12-01T09:31:14.339Z,103074.34
2022-12-01T09:36:36.701Z,103076.88
2022-12-01T09:42:09.270Z,103076.06
2022-12-01T09:47:37.690Z,103070.25
2022-12-01T09:53:05.971Z,103066.16
2022-12-01T09:58:30.756Z,103065.50
2022-12-01T10:03:57.310Z,103058.03
2022-12-01T10:09:32.983Z,103061.31
2022-12-01T10:15:00.735Z,103059.75
2022-12-01T10:20:33.628Z,103064.09
2022-12-01T10:26:09.726Z,103060.66
2022-12-01T10:31:54.223Z,103056.38
2022-12-01T10:37:20.172Z,103054.72
2022-12-01T10:42:45.962Z,103051.41
2022-12-01T10:48:10.864Z,103048.97
2022-12-01T10:53:33.715Z,103049.06
2022-12-01T10:58:57.336Z,103032.97
2022-12-01T11:04:45.255Z,103034.78
2022-12-01T11:10:20.847Z,103029.03
2022-12-01T11:15:51.834Z,103028.50
2022-12-01T11:21:26.392Z,103021.38
2022-12-01T11:26:46.735Z,103026.88
2022-12-01T11:32:18.786Z,103020.81
2022-12-01T11:37:54.899Z,103015.41
2022-12-01T11:43:35.004Z,103012.06
2022-12-01T11:48:59.818Z,103012.78
2022-12-01T11:54:25.996Z,103022.00
2022-12-01T11:59:47.046Z,103022.66
2022-12-01T12:05:49.088Z,103022.84
2022-12-01T12:11:25.159Z,103015.34
2022-12-01T12:16:55.606Z,103015.94
2022-12-01T12:22:35.165Z,103015.13
2022-12-01T12:28:17.112Z,103001.47
2022-12-01T12:34:25.335Z,103006.53
2022-12-01T12:40:09.487Z,102996.88
2022-12-01T12:45:53.955Z,103004.19
2022-12-01T12:51:24.939Z,103017.38
2022-12-01T12:56:49.479Z,103012.72
2022-12-01T13:02:20.012Z,103006.47
2022-12-01T13:08:19.273Z,102993.63
2022-12-01T13:13:54.646Z,102983.28
2022-12-01T13:19:21.354Z,102984.00
2022-12-01T13:24:42.420Z,102981.44
2022-12-01T13:30:04.054Z,102990.69
2022-12-01T13:35:39.691Z,102981.28
2022-12-01T13:41:39.484Z,102983.84
2022-12-01T13:47:21.214Z,102989.06
2022-12-01T13:52:49.583Z,102987.41
2022-12-01T13:58:14.064Z,102979.78
2022-12-01T14:03:40.303Z,102993.41
2022-12-01T14:09:05.059Z,102984.94
2022-12-01T14:14:28.346Z,102979.00
2022-12-01T14:19:53.999Z,102986.59
2022-12-01T14:25:20.636Z,102983.22
2022-12-01T14:30:45.727Z,102992.56
2022-12-01T14:36:19.402Z,102983.81
2022-12-01T14:41:47.599Z,102991.38
2022-12-01T14:47:10.933Z,102987.03
2022-12-01T14:52:42.217Z,102982.75
2022-12-01T14:58:11.746Z,102976.75
2022-12-01T15:03:36.973Z,102982.75
2022-12-01T15:09:33.456Z,102991.19
2022-12-01T15:14:54.746Z,102985.06
2022-12-01T15:20:31.418Z,102985.84
2022-12-01T15:25:52.103Z,102978.84
2022-12-01T15:31:13.734Z,102982.97
2022-12-01T15:36:37.597Z,102988.00
2022-12-01T15:41:58.767Z,102986.38
2022-12-01T15:47:43.010Z,102982.09
2022-12-01T15:53:17.521Z,102989.72
2022-12-01T15:58:45.174Z,102986.38
2022-12-01T16:04:14.492Z,102993.19
2022-12-01T16:09:43.318Z,102994.81
2022-12-01T16:15:10.061Z,102995.75
2022-12-01T16:20:39.219Z,102986.38
2022-12-01T16:26:02.140Z,103000.84
2022-12-01T16:31:25.763Z,102997.38
2022-12-01T16:36:46.890Z,102999.13
2022-12-01T16:42:11.857Z,102996.53
2022-12-01T16:47:32.407Z,102995.59
2022-12-01T16:52:53.073Z,103001.47
2022-12-01T16:58:14.192Z,102990.31
2022-12-01T17:03:36.686Z,102993.72
2022-12-01T17:08:56.945Z,102995.56
2022-12-01T17:14:17.364Z,102999.66
2022-12-01T17:19:37.579Z,102998.78
2022-12-01T17:24:59.366Z,102992.00
2022-12-01T17:30:19.992Z,102987.69
2022-12-01T17:35:40.830Z,102991.94
2022-12-01T17:41:07.794Z,102996.16
2022-12-01T17:46:28.263Z,103002.06
2022-12-01T17:51:48.836Z,103007.16
2022-12-01T17:57:10.242Z,103005.41
2022-12-01T18:02:30.861Z,103011.34
2022-12-01T18:07:51.779Z,103005.34
2022-12-01T18:13:12.101Z,103013.13
2022-12-01T18:18:32.327Z,103008.81
2022-12-01T18:23:58.891Z,103002.72
2022-12-01T18:29:25.840Z,103002.81
2022-12-01T18:34:46.810Z,103003.72
2022-12-01T18:40:08.491Z,103012.06
2022-12-01T18:45:28.832Z,103011.16
2022-12-01T18:50:52.608Z,103005.91
2022-12-01T18:56:15.762Z,102998.94
2022-12-01T19:01:43.827Z,103004.78
2022-12-01T19:07:04.657Z,103005.66
2022-12-01T19:12:25.465Z,103006.50
2022-12-01T19:17:46.072Z,103007.34
2022-12-01T19:23:06.676Z,103008.16
2022-12-01T19:28:28.366Z,103010.75
2022-12-01T19:33:49.960Z,103017.75
2022-12-01T19:39:11.234Z,103015.25
2022-12-01T19:44:31.940Z,103006.66
2022-12-01T19:49:52.302Z,103008.38
2022-12-01T19:55:12.952Z,103002.38
2022-12-01T20:00:33.769Z,103000.78
2022-12-01T20:05:54.337Z,103005.84
2022-12-01T20:11:15.451Z,102998.09
2022-12-01T20:16:36.413Z,103006.56
2022-12-01T20:21:57.027Z,103001.41
2022-12-01T20:27:17.415Z,102994.50
2022-12-01T20:32:38.450Z,102998.63
2022-12-01T20:37:59.043Z,102993.56
2022-12-01T20:43:19.931Z,102999.44
2022-12-01T20:48:40.367Z,103001.16
2022-12-01T20:59:42.614Z,103000.47
2022-12-01T21:05:03.401Z,103006.50
2022-12-01T21:10:23.709Z,103005.59
2022-12-01T21:16:01.860Z,103002.09
2022-12-01T21:29:19.501Z,102994.88
2022-12-01T21:34:40.367Z,102997.34
2022-12-01T21:40:00.777Z,102996.53
2022-12-01T21:45:31.990Z,102988.88
2022-12-01T21:51:11.626Z,102998.06
2022-12-01T21:56:32.601Z,102997.19
2022-12-01T22:01:56.605Z,102998.69
2022-12-01T22:07:18.033Z,102998.69
2022-12-01T22:12:38.370Z,102988.53
2022-12-01T22:17:58.980Z,102986.72
2022-12-01T22:23:20.568Z,102975.47
2022-12-01T22:28:40.923Z,102981.50
2022-12-01T22:34:03.551Z,102973.00
2022-12-01T22:39:33.872Z,102977.19
2022-12-01T22:44:54.658Z,102983.88
2022-12-01T22:50:32.980Z,102988.09
2022-12-01T22:55:55.609Z,102975.19
2022-12-01T23:01:27.252Z,102983.59
2022-12-01T23:06:52.897Z,102981.75
2022-12-01T23:12:13.143Z,102978.31
2022-12-01T23:17:35.623Z,102974.88
2022-12-01T23:22:57.524Z,102962.16
2022-12-01T23:28:19.033Z,102967.41
2022-12-01T23:33:40.069Z,102977.75
2022-12-01T23:39:04.351Z,102969.31
2022-12-01T23:44:37.548Z,102966.88
2022-12-01T23:50:06.718Z,102966.09
2022-12-01T23:55:29.170Z,102964.34
